Terminal Aerodrome Forecast
Issued by NWS

Home | Current Version | Previous Version | Text Only | Print | Product List | Glossary On
Versions: 1 2 3 4 5 6 7 8 9 10 11 12 13 14 15 16 17 18 19 20 21 22 23 24 25 26 27 28 29 30 31 32 33 34 35 36 37 38 39 40 41 42 43 44
000
FTUS43 KBIS 182322
TAFMOT
TAF
KMOT 182322Z 1900/1924 31012KT P6SM SCT040 SCT060
     FM190200 27005KT P6SM SCT080
     FM190500 23005KT P6SM FEW250
     FM191800 20017G24KT P6SM SCT250
     FM192200 24018G26KT P6SM FEW250=

USA.gov is the U.S. government's official web portal to all federal, state and local government web resources and services.